CheckWX is a tool to help pilots better visualize weather data.  It is not intended as a substitute for an official pre-flight weather briefing.

10:12:15 UTC

WMKI TAF
Sultan Azlan Shah Airport
Ipoh, Malaysia
TAF AMD WMKI 260752Z 2607/2706 VRB03KT 9999 FEW020 BECMG 2612/2614 9000 FEW030

Jun-26@
07:00 UTC

Jun-26 @ 07:00 UTC

Jun-26@
12:00 UTC

Jun-26 @ 12:00 UTC

TAF AMD WMKI 260752Z 2607/2706 VRB03KT 9999 FEW020
Wind
  • Variable at 3 KTS
Cloud Levels
  • Few at 2,000' AGL

Jun-26@
12:00 UTC

Jun-26 @ 12:00 UTC

Jun-27@
06:00 UTC

Jun-27 @ 06:00 UTC

BECMG 2612/2614 9000 FEW030

Becoming

Becoming Conditions expected by Wed, Jun 26, 2019 @ 14:00 UTC

Wind
  • Variable at 3 KTS
Cloud Levels
  • Few at 3,000' AGL